Time,TemperatureF,DewpointF,PressureIn,WindDirection,WindDirectionDegrees,WindSpeedMPH,WindSpeedGustMPH,Humidity,HourlyPrecipIn,Conditions,Clouds,dailyrainin,SolarRadiationWatts/m^2,SoftwareType,DateUTC
2013-12-15 00:00:00,45.0,10.0,-100.00,WNW,289,7.0,15.0,24,0.00,,,0.00,0.000000,,2013-12-15 08:00:00,
2013-12-15 00:42:00,45.0,10.0,-100.00,WNW,289,7.0,15.0,24,0.00,,,0.00,0.000000,,2013-12-15 08:42:00,
2013-12-15 00:52:00,45.0,10.0,-100.00,WNW,289,7.0,15.0,24,0.00,,,0.00,0.000000,,2013-12-15 08:52:00,
2013-12-15 01:00:00,43.0,10.0,-100.00,WNW,288,10.0,16.0,25,0.00,,,0.00,0.000000,,2013-12-15 09:00:00,
2013-12-15 01:43:00,43.0,10.0,-100.00,WNW,288,10.0,16.0,25,0.00,,,0.00,0.000000,,2013-12-15 09:43:00,
2013-12-15 01:53:00,43.0,10.0,-100.00,WNW,288,10.0,16.0,25,0.00,,,0.00,0.000000,,2013-12-15 09:53:00,
2013-12-15 02:00:00,45.0,11.0,-100.00,WNW,288,9.0,13.0,25,0.00,,,0.00,0.000000,,2013-12-15 10:00:00,
2013-12-15 02:43:00,45.0,11.0,-100.00,WNW,288,9.0,13.0,25,0.00,,,0.00,0.000000,,2013-12-15 10:43:00,
2013-12-15 02:52:00,45.0,11.0,-100.00,WNW,288,9.0,13.0,25,0.00,,,0.00,0.000000,,2013-12-15 10:52:00,
2013-12-15 03:00:00,44.0,10.0,-100.00,WNW,288,7.0,15.0,24,0.00,,,0.00,0.000000,,2013-12-15 11:00:00,
2013-12-15 03:43:00,44.0,10.0,-100.00,WNW,288,7.0,15.0,24,0.00,,,0.00,0.000000,,2013-12-15 11:43:00,
2013-12-15 03:52:00,44.0,10.0,-100.00,WNW,288,7.0,15.0,24,0.00,,,0.00,0.000000,,2013-12-15 11:52:00,
2013-12-15 04:00:00,44.0,10.0,-100.00,WNW,298,9.0,13.0,24,0.00,,,0.00,0.000000,,2013-12-15 12:00:00,
2013-12-15 04:42:00,44.0,10.0,-100.00,WNW,298,9.0,13.0,24,0.00,,,0.00,0.000000,,2013-12-15 12:42:00,
2013-12-15 04:52:00,44.0,10.0,-100.00,WNW,298,9.0,13.0,24,0.00,,,0.00,0.000000,,2013-12-15 12:52:00,
2013-12-15 05:00:00,43.0,10.0,-100.00,WNW,286,10.0,14.0,25,0.00,,,0.00,0.000000,,2013-12-15 13:00:00,
2013-12-15 05:42:00,43.0,10.0,-100.00,WNW,286,10.0,14.0,25,0.00,,,0.00,0.000000,,2013-12-15 13:42:00,
2013-12-15 05:52:00,43.0,10.0,-100.00,WNW,286,10.0,14.0,25,0.00,,,0.00,0.000000,,2013-12-15 13:52:00,
2013-12-15 06:00:00,45.0,10.0,-100.00,WNW,296,10.0,15.0,24,0.00,,,0.00,0.000000,,2013-12-15 14:00:00,
2013-12-15 06:42:00,45.0,10.0,-100.00,WNW,296,10.0,15.0,24,0.00,,,0.00,0.000000,,2013-12-15 14:42:00,
2013-12-15 06:52:00,45.0,10.0,-100.00,WNW,296,10.0,15.0,24,0.00,,,0.00,0.000000,,2013-12-15 14:52:00,
2013-12-15 07:00:00,45.0,11.0,-100.00,WNW,292,8.0,14.0,25,0.00,,,0.00,0.000000,,2013-12-15 15:00:00,
2013-12-15 07:43:00,45.0,11.0,-100.00,WNW,292,8.0,14.0,25,0.00,,,0.00,0.000000,,2013-12-15 15:43:00,
2013-12-15 07:53:00,45.0,11.0,-100.00,WNW,292,8.0,14.0,25,0.00,,,0.00,0.000000,,2013-12-15 15:53:00,
2013-12-15 08:00:00,52.0,13.0,-100.00,North,-999,0.0,13.0,21,0.00,,,0.00,84.000000,,2013-12-15 16:00:00,
2013-12-15 08:52:00,52.0,13.0,-100.00,North,-999,0.0,13.0,21,0.00,,,0.00,84.000000,,2013-12-15 16:52:00,
2013-12-15 10:00:00,60.0,16.0,-100.00,East,101,1.0,6.0,18,-99.99,,,0.00,477.000000,,2013-12-15 18:00:00,
2013-12-15 10:42:00,60.0,16.0,-100.00,East,101,1.0,6.0,18,-99.99,,,0.00,477.000000,,2013-12-15 18:42:00,
2013-12-15 10:52:00,60.0,16.0,-100.00,East,101,1.0,6.0,18,-99.99,,,0.00,477.000000,,2013-12-15 18:52:00,
2013-12-15 11:00:00,64.0,20.0,-100.00,SSE,150,1.0,5.0,18,0.00,,,0.00,608.000000,,2013-12-15 19:00:00,
2013-12-15 11:42:00,64.0,20.0,-100.00,SSE,150,1.0,5.0,18,0.00,,,0.00,608.000000,,2013-12-15 19:42:00,
2013-12-15 11:52:00,64.0,20.0,-100.00,SSE,150,1.0,5.0,18,0.00,,,0.00,608.000000,,2013-12-15 19:52:00,
2013-12-15 12:00:00,68.0,20.0,-100.00,SE,129,1.0,7.0,16,0.00,,,0.00,665.000000,,2013-12-15 20:00:00,
2013-12-15 12:22:00,68.0,20.0,-100.00,SE,129,1.0,7.0,16,0.00,,,0.00,665.000000,,2013-12-15 20:22:00,
2013-12-15 12:32:00,68.0,20.0,-100.00,SE,129,1.0,7.0,16,0.00,,,0.00,665.000000,,2013-12-15 20:32:00,
2013-12-15 12:42:00,68.0,20.0,-100.00,SE,129,1.0,7.0,16,0.00,,,0.00,665.000000,,2013-12-15 20:42:00,
2013-12-15 12:52:00,68.0,20.0,-100.00,SE,129,1.0,7.0,16,0.00,,,0.00,665.000000,,2013-12-15 20:52:00,
2013-12-15 13:00:00,70.0,17.0,-100.00,SSE,152,1.0,7.0,13,0.00,,,0.00,657.000000,,2013-12-15 21:00:00,
2013-12-15 13:43:00,70.0,17.0,-100.00,SSE,152,1.0,7.0,13,0.00,,,0.00,657.000000,,2013-12-15 21:43:00,
2013-12-15 13:54:00,70.0,17.0,-100.00,SSE,152,1.0,7.0,13,0.00,,,0.00,657.000000,,2013-12-15 21:54:00,
2013-12-15 14:43:00,71.0,14.0,-100.00,North,-999,0.0,5.0,11,-99.99,,,0.00,572.000000,,2013-12-15 22:43:00,
2013-12-15 15:00:00,69.0,18.0,-100.00,West,273,5.0,8.0,14,-99.99,,,0.00,395.000000,,2013-12-15 23:00:00,
2013-12-15 15:42:00,69.0,18.0,-100.00,West,273,5.0,8.0,14,-99.99,,,0.00,395.000000,,2013-12-15 23:42:00,
2013-12-15 15:52:00,69.0,18.0,-100.00,West,273,5.0,8.0,14,-99.99,,,0.00,395.000000,,2013-12-15 23:52:00,
2013-12-15 16:00:00,57.0,16.0,-100.00,WNW,286,9.0,12.0,20,0.00,,,0.00,144.000000,,2013-12-16 00:00:00,
2013-12-15 16:22:00,57.0,16.0,-100.00,WNW,286,9.0,12.0,20,0.00,,,0.00,144.000000,,2013-12-16 00:22:00,
2013-12-15 16:32:00,57.0,16.0,-100.00,WNW,286,9.0,12.0,20,0.00,,,0.00,144.000000,,2013-12-16 00:32:00,
2013-12-15 16:42:00,57.0,16.0,-100.00,WNW,286,9.0,12.0,20,0.00,,,0.00,144.000000,,2013-12-16 00:42:00,
2013-12-15 16:52:00,57.0,16.0,-100.00,WNW,286,9.0,12.0,20,0.00,,,0.00,144.000000,,2013-12-16 00:52:00,
2013-12-15 17:00:00,53.0,15.0,-100.00,WNW,284,10.0,16.0,22,0.00,,,0.00,20.000000,,2013-12-16 01:00:00,
2013-12-15 17:42:00,53.0,15.0,-100.00,WNW,284,10.0,16.0,22,0.00,,,0.00,20.000000,,2013-12-16 01:42:00,
2013-12-15 17:52:00,53.0,15.0,-100.00,WNW,284,10.0,16.0,22,0.00,,,0.00,20.000000,,2013-12-16 01:52:00,
2013-12-15 18:00:00,53.0,15.0,-100.00,WNW,290,10.0,17.0,22,0.00,,,-99.99,0.000000,,2013-12-16 02:00:00,
2013-12-15 18:42:00,53.0,15.0,-100.00,WNW,290,10.0,17.0,22,0.00,,,-99.99,0.000000,,2013-12-16 02:42:00,
2013-12-15 18:52:00,53.0,15.0,-100.00,WNW,290,10.0,17.0,22,0.00,,,-99.99,0.000000,,2013-12-16 02:52:00,
2013-12-15 19:00:00,52.0,15.0,-100.00,WNW,288,10.0,15.0,23,0.00,,,0.00,0.000000,,2013-12-16 03:00:00,
2013-12-15 19:43:00,52.0,15.0,-100.00,WNW,288,10.0,15.0,23,0.00,,,0.00,0.000000,,2013-12-16 03:43:00,
2013-12-15 19:54:00,52.0,15.0,-100.00,WNW,288,10.0,15.0,23,0.00,,,0.00,0.000000,,2013-12-16 03:54:00,
2013-12-15 20:00:00,52.0,14.0,-100.00,WNW,294,10.0,14.0,22,0.00,,,0.00,0.000000,,2013-12-16 04:00:00,
2013-12-15 20:43:00,52.0,14.0,-100.00,WNW,294,10.0,14.0,22,0.00,,,0.00,0.000000,,2013-12-16 04:43:00,
2013-12-15 20:52:00,52.0,14.0,-100.00,WNW,294,10.0,14.0,22,0.00,,,0.00,0.000000,,2013-12-16 04:52:00,
2013-12-15 21:00:00,49.0,15.0,-100.00,WNW,294,11.0,15.0,25,0.00,,,0.00,0.000000,,2013-12-16 05:00:00,
2013-12-15 21:43:00,49.0,15.0,-100.00,WNW,294,11.0,15.0,25,0.00,,,0.00,0.000000,,2013-12-16 05:43:00,
2013-12-15 21:53:00,49.0,15.0,-100.00,WNW,294,11.0,15.0,25,0.00,,,0.00,0.000000,,2013-12-16 05:53:00,
2013-12-15 23:00:00,51.0,15.0,-100.00,WNW,290,10.0,16.0,23,0.00,,,0.00,0.000000,,2013-12-16 07:00:00,
2013-12-15 23:43:00,51.0,15.0,-100.00,WNW,290,10.0,16.0,23,0.00,,,0.00,0.000000,,2013-12-16 07:43:00,
2013-12-15 23:52:00,51.0,15.0,-100.00,WNW,290,10.0,16.0,23,0.00,,,0.00,0.000000,,2013-12-16 07:52:00,